sensor_id;sensor_type;location;lat;lon;timestamp;P1;durP1;ratioP1;P2;durP2;ratioP2
46755;SDS011;32506;52.826;-1.192;2022-11-15T00:00:29;3.75;;;1.70;;
46755;SDS011;32506;52.826;-1.192;2022-11-15T00:02:55;5.43;;;1.75;;
46755;SDS011;32506;52.826;-1.192;2022-11-15T00:05:21;4.18;;;1.38;;
46755;SDS011;32506;52.826;-1.192;2022-11-15T00:07:46;4.30;;;1.60;;
46755;SDS011;32506;52.826;-1.192;2022-11-15T00:10:12;6.18;;;1.58;;
46755;SDS011;32506;52.826;-1.192;2022-11-15T00:12:38;4.43;;;1.70;;
46755;SDS011;32506;52.826;-1.192;2022-11-15T00:15:03;2.80;;;1.20;;
46755;SDS011;32506;52.826;-1.192;2022-11-15T00:17:29;5.97;;;1.60;;
46755;SDS011;32506;52.826;-1.192;2022-11-15T00:19:54;4.25;;;1.52;;
46755;SDS011;32506;52.826;-1.192;2022-11-15T00:22:20;4.72;;;1.40;;
46755;SDS011;32506;52.826;-1.192;2022-11-15T00:24:46;4.40;;;1.73;;
46755;SDS011;32506;52.826;-1.192;2022-11-15T00:27:12;3.28;;;1.40;;
46755;SDS011;32506;52.826;-1.192;2022-11-15T00:29:37;3.38;;;1.50;;
46755;SDS011;32506;52.826;-1.192;2022-11-15T00:32:04;5.30;;;1.48;;
46755;SDS011;32506;52.826;-1.192;2022-11-15T00:34:30;5.70;;;1.50;;
46755;SDS011;32506;52.826;-1.192;2022-11-15T00:36:55;5.22;;;1.30;;
46755;SDS011;32506;52.826;-1.192;2022-11-15T00:39:21;5.57;;;1.50;;
46755;SDS011;32506;52.826;-1.192;2022-11-15T00:41:46;5.53;;;1.27;;
46755;SDS011;32506;52.826;-1.192;2022-11-15T00:44:12;3.15;;;1.38;;
46755;SDS011;32506;52.826;-1.192;2022-11-15T00:46:37;3.25;;;1.33;;
46755;SDS011;32506;52.826;-1.192;2022-11-15T00:49:02;3.30;;;1.08;;
46755;SDS011;32506;52.826;-1.192;2022-11-15T00:51:28;4.43;;;1.23;;
46755;SDS011;32506;52.826;-1.192;2022-11-15T00:53:53;4.88;;;1.42;;
46755;SDS011;32506;52.826;-1.192;2022-11-15T00:56:19;4.25;;;1.33;;
46755;SDS011;32506;52.826;-1.192;2022-11-15T00:58:44;5.07;;;2.15;;
46755;SDS011;32506;52.826;-1.192;2022-11-15T01:01:10;3.75;;;1.15;;
46755;SDS011;32506;52.826;-1.192;2022-11-15T01:03:38;2.80;;;1.38;;
46755;SDS011;32506;52.826;-1.192;2022-11-15T01:06:05;4.35;;;1.23;;
46755;SDS011;32506;52.826;-1.192;2022-11-15T01:08:32;5.13;;;1.67;;
46755;SDS011;32506;52.826;-1.192;2022-11-15T01:11:02;3.08;;;1.42;;
46755;SDS011;32506;52.826;-1.192;2022-11-15T01:13:33;5.88;;;1.70;;
46755;SDS011;32506;52.826;-1.192;2022-11-15T01:16:04;4.63;;;1.13;;
46755;SDS011;32506;52.826;-1.192;2022-11-15T01:18:34;5.80;;;1.13;;
46755;SDS011;32506;52.826;-1.192;2022-11-15T01:21:00;3.67;;;1.50;;
46755;SDS011;32506;52.826;-1.192;2022-11-15T01:23:30;4.72;;;1.58;;
46755;SDS011;32506;52.826;-1.192;2022-11-15T01:25:59;3.75;;;1.50;;
46755;SDS011;32506;52.826;-1.192;2022-11-15T01:28:25;3.65;;;1.15;;
46755;SDS011;32506;52.826;-1.192;2022-11-15T01:30:56;3.92;;;1.00;;
46755;SDS011;32506;52.826;-1.192;2022-11-15T01:33:23;4.80;;;1.30;;
46755;SDS011;32506;52.826;-1.192;2022-11-15T01:35:48;4.25;;;1.63;;
46755;SDS011;32506;52.826;-1.192;2022-11-15T01:38:13;3.67;;;1.00;;
46755;SDS011;32506;52.826;-1.192;2022-11-15T01:40:39;6.13;;;1.17;;
46755;SDS011;32506;52.826;-1.192;2022-11-15T01:46:19;5.45;;;1.00;;
46755;SDS011;32506;52.826;-1.192;2022-11-15T01:48:46;6.57;;;1.30;;
46755;SDS011;32506;52.826;-1.192;2022-11-15T01:51:14;5.55;;;1.67;;
46755;SDS011;32506;52.826;-1.192;2022-11-15T01:53:43;4.45;;;1.60;;
46755;SDS011;32506;52.826;-1.192;2022-11-15T01:56:13;3.35;;;1.13;;
46755;SDS011;32506;52.826;-1.192;2022-11-15T01:58:47;4.53;;;1.08;;
46755;SDS011;32506;52.826;-1.192;2022-11-15T02:01:13;5.32;;;1.50;;
46755;SDS011;32506;52.826;-1.192;2022-11-15T02:04:24;6.00;;;2.20;;
46755;SDS011;32506;52.826;-1.192;2022-11-15T02:06:30;6.55;;;1.35;;
46755;SDS011;32506;52.826;-1.192;2022-11-15T02:08:56;7.13;;;1.88;;
46755;SDS011;32506;52.826;-1.192;2022-11-15T02:11:23;4.03;;;1.10;;
46755;SDS011;32506;52.826;-1.192;2022-11-15T02:13:48;6.82;;;1.60;;
46755;SDS011;32506;52.826;-1.192;2022-11-15T02:21:45;5.83;;;1.50;;
46755;SDS011;32506;52.826;-1.192;2022-11-15T02:24:36;5.85;;;1.80;;
46755;SDS011;32506;52.826;-1.192;2022-11-15T02:29:59;6.00;;;1.60;;
46755;SDS011;32506;52.826;-1.192;2022-11-15T02:35:47;5.93;;;1.60;;
46755;SDS011;32506;52.826;-1.192;2022-11-15T02:38:54;5.07;;;1.52;;
46755;SDS011;32506;52.826;-1.192;2022-11-15T02:44:56;11.70;;;1.55;;
46755;SDS011;32506;52.826;-1.192;2022-11-15T02:47:25;4.40;;;1.27;;
46755;SDS011;32506;52.826;-1.192;2022-11-15T02:49:56;6.22;;;0.98;;
46755;SDS011;32506;52.826;-1.192;2022-11-15T02:52:25;4.32;;;1.35;;
46755;SDS011;32506;52.826;-1.192;2022-11-15T02:57:21;8.20;;;2.00;;
46755;SDS011;32506;52.826;-1.192;2022-11-15T03:00:03;9.70;;;2.53;;
46755;SDS011;32506;52.826;-1.192;2022-11-15T03:05:38;5.72;;;0.93;;
46755;SDS011;32506;52.826;-1.192;2022-11-15T03:08:10;6.38;;;1.60;;
46755;SDS011;32506;52.826;-1.192;2022-11-15T03:11:08;7.32;;;1.55;;
46755;SDS011;32506;52.826;-1.192;2022-11-15T03:13:43;6.85;;;1.30;;
46755;SDS011;32506;52.826;-1.192;2022-11-15T03:19:16;6.90;;;0.90;;
46755;SDS011;32506;52.826;-1.192;2022-11-15T03:21:48;5.20;;;0.82;;
46755;SDS011;32506;52.826;-1.192;2022-11-15T03:24:15;3.80;;;1.13;;
46755;SDS011;32506;52.826;-1.192;2022-11-15T03:26:43;5.45;;;1.20;;
46755;SDS011;32506;52.826;-1.192;2022-11-15T03:29:14;3.58;;;0.95;;
46755;SDS011;32506;52.826;-1.192;2022-11-15T03:31:45;5.75;;;1.20;;
46755;SDS011;32506;52.826;-1.192;2022-11-15T03:34:30;8.27;;;1.73;;
46755;SDS011;32506;52.826;-1.192;2022-11-15T03:37:00;5.57;;;0.95;;
46755;SDS011;32506;52.826;-1.192;2022-11-15T03:39:26;7.55;;;0.98;;
46755;SDS011;32506;52.826;-1.192;2022-11-15T03:49:46;4.72;;;0.95;;
46755;SDS011;32506;52.826;-1.192;2022-11-15T03:52:17;5.70;;;1.13;;
46755;SDS011;32506;52.826;-1.192;2022-11-15T03:54:48;4.20;;;1.30;;
46755;SDS011;32506;52.826;-1.192;2022-11-15T03:57:18;7.07;;;1.17;;
46755;SDS011;32506;52.826;-1.192;2022-11-15T03:59:43;5.78;;;1.00;;
46755;SDS011;32506;52.826;-1.192;2022-11-15T04:02:09;10.13;;;1.30;;
46755;SDS011;32506;52.826;-1.192;2022-11-15T04:04:34;7.65;;;1.70;;
46755;SDS011;32506;52.826;-1.192;2022-11-15T04:07:00;8.68;;;1.15;;
46755;SDS011;32506;52.826;-1.192;2022-11-15T04:09:25;7.88;;;1.10;;
46755;SDS011;32506;52.826;-1.192;2022-11-15T04:11:51;6.38;;;0.95;;
46755;SDS011;32506;52.826;-1.192;2022-11-15T04:14:16;5.18;;;1.80;;
46755;SDS011;32506;52.826;-1.192;2022-11-15T04:16:41;3.55;;;0.85;;
46755;SDS011;32506;52.826;-1.192;2022-11-15T04:19:07;3.67;;;0.90;;
46755;SDS011;32506;52.826;-1.192;2022-11-15T04:21:51;7.13;;;0.82;;
46755;SDS011;32506;52.826;-1.192;2022-11-15T04:24:35;9.63;;;1.40;;
46755;SDS011;32506;52.826;-1.192;2022-11-15T04:27:00;6.72;;;0.80;;
46755;SDS011;32506;52.826;-1.192;2022-11-15T04:29:26;5.43;;;1.00;;
46755;SDS011;32506;52.826;-1.192;2022-11-15T04:32:01;8.07;;;1.27;;
46755;SDS011;32506;52.826;-1.192;2022-11-15T04:34:28;6.63;;;1.38;;
46755;SDS011;32506;52.826;-1.192;2022-11-15T04:36:54;8.35;;;1.10;;
46755;SDS011;32506;52.826;-1.192;2022-11-15T04:39:38;4.03;;;0.70;;
46755;SDS011;32506;52.826;-1.192;2022-11-15T04:42:05;5.10;;;1.00;;
46755;SDS011;32506;52.826;-1.192;2022-11-15T04:44:30;3.72;;;1.00;;
46755;SDS011;32506;52.826;-1.192;2022-11-15T04:46:56;7.47;;;1.13;;
46755;SDS011;32506;52.826;-1.192;2022-11-15T04:49:21;3.92;;;0.90;;
46755;SDS011;32506;52.826;-1.192;2022-11-15T04:51:48;3.78;;;0.90;;
46755;SDS011;32506;52.826;-1.192;2022-11-15T04:54:13;6.30;;;1.13;;
46755;SDS011;32506;52.826;-1.192;2022-11-15T04:56:39;4.28;;;1.40;;
46755;SDS011;32506;52.826;-1.192;2022-11-15T04:59:04;6.82;;;1.00;;
46755;SDS011;32506;52.826;-1.192;2022-11-15T05:01:29;7.38;;;1.73;;
46755;SDS011;32506;52.826;-1.192;2022-11-15T05:03:55;8.25;;;0.88;;
46755;SDS011;32506;52.826;-1.192;2022-11-15T05:06:39;3.13;;;0.70;;
46755;SDS011;32506;52.826;-1.192;2022-11-15T05:09:04;4.50;;;0.85;;
46755;SDS011;32506;52.826;-1.192;2022-11-15T05:11:30;7.13;;;1.58;;
46755;SDS011;32506;52.826;-1.192;2022-11-15T05:13:55;6.53;;;1.10;;
46755;SDS011;32506;52.826;-1.192;2022-11-15T05:16:21;5.28;;;0.98;;
46755;SDS011;32506;52.826;-1.192;2022-11-15T05:18:46;6.82;;;1.25;;
46755;SDS011;32506;52.826;-1.192;2022-11-15T05:21:16;7.65;;;1.40;;
46755;SDS011;32506;52.826;-1.192;2022-11-15T05:23:41;5.18;;;0.90;;
46755;SDS011;32506;52.826;-1.192;2022-11-15T05:26:07;8.68;;;1.05;;
46755;SDS011;32506;52.826;-1.192;2022-11-15T05:28:33;4.65;;;0.98;;
46755;SDS011;32506;52.826;-1.192;2022-11-15T05:31:00;6.05;;;0.90;;
46755;SDS011;32506;52.826;-1.192;2022-11-15T05:33:26;9.25;;;1.50;;
46755;SDS011;32506;52.826;-1.192;2022-11-15T05:35:57;7.57;;;1.30;;
46755;SDS011;32506;52.826;-1.192;2022-11-15T05:38:28;4.35;;;0.75;;
46755;SDS011;32506;52.826;-1.192;2022-11-15T05:40:54;4.43;;;0.80;;
46755;SDS011;32506;52.826;-1.192;2022-11-15T05:43:20;9.00;;;1.35;;
46755;SDS011;32506;52.826;-1.192;2022-11-15T05:45:45;2.70;;;0.60;;
46755;SDS011;32506;52.826;-1.192;2022-11-15T05:48:11;6.53;;;1.20;;
46755;SDS011;32506;52.826;-1.192;2022-11-15T05:50:38;7.53;;;1.23;;
46755;SDS011;32506;52.826;-1.192;2022-11-15T05:53:07;6.38;;;1.58;;
46755;SDS011;32506;52.826;-1.192;2022-11-15T05:55:32;4.40;;;1.00;;
46755;SDS011;32506;52.826;-1.192;2022-11-15T05:57:59;6.68;;;1.05;;
46755;SDS011;32506;52.826;-1.192;2022-11-15T06:00:25;4.57;;;1.13;;
46755;SDS011;32506;52.826;-1.192;2022-11-15T06:02:51;7.10;;;1.20;;
46755;SDS011;32506;52.826;-1.192;2022-11-15T06:05:16;11.85;;;1.23;;
46755;SDS011;32506;52.826;-1.192;2022-11-15T06:07:42;7.18;;;1.05;;
46755;SDS011;32506;52.826;-1.192;2022-11-15T06:10:10;5.68;;;1.00;;
46755;SDS011;32506;52.826;-1.192;2022-11-15T06:12:36;7.50;;;1.77;;
46755;SDS011;32506;52.826;-1.192;2022-11-15T06:15:01;6.57;;;0.98;;
46755;SDS011;32506;52.826;-1.192;2022-11-15T06:17:27;6.32;;;1.27;;
46755;SDS011;32506;52.826;-1.192;2022-11-15T06:19:53;6.18;;;0.90;;
46755;SDS011;32506;52.826;-1.192;2022-11-15T06:22:19;7.75;;;1.05;;
46755;SDS011;32506;52.826;-1.192;2022-11-15T06:24:44;7.38;;;1.52;;
46755;SDS011;32506;52.826;-1.192;2022-11-15T06:27:10;6.78;;;0.98;;
46755;SDS011;32506;52.826;-1.192;2022-11-15T06:29:36;7.03;;;1.63;;
46755;SDS011;32506;52.826;-1.192;2022-11-15T06:32:02;4.88;;;0.98;;
46755;SDS011;32506;52.826;-1.192;2022-11-15T06:34:27;5.40;;;0.85;;
46755;SDS011;32506;52.826;-1.192;2022-11-15T06:36:53;5.35;;;1.30;;
46755;SDS011;32506;52.826;-1.192;2022-11-15T06:39:18;6.10;;;0.82;;
46755;SDS011;32506;52.826;-1.192;2022-11-15T06:41:44;5.22;;;0.90;;
46755;SDS011;32506;52.826;-1.192;2022-11-15T06:44:09;6.07;;;1.55;;
46755;SDS011;32506;52.826;-1.192;2022-11-15T06:46:35;3.75;;;1.42;;
46755;SDS011;32506;52.826;-1.192;2022-11-15T06:49:00;5.93;;;1.33;;
46755;SDS011;32506;52.826;-1.192;2022-11-15T06:51:26;4.15;;;1.20;;
46755;SDS011;32506;52.826;-1.192;2022-11-15T06:53:51;6.70;;;1.20;;
46755;SDS011;32506;52.826;-1.192;2022-11-15T06:56:16;5.68;;;1.17;;
46755;SDS011;32506;52.826;-1.192;2022-11-15T06:58:42;6.03;;;1.02;;
46755;SDS011;32506;52.826;-1.192;2022-11-15T07:01:08;7.25;;;1.20;;
46755;SDS011;32506;52.826;-1.192;2022-11-15T07:03:40;6.45;;;1.23;;
46755;SDS011;32506;52.826;-1.192;2022-11-15T07:06:07;6.35;;;0.90;;
46755;SDS011;32506;52.826;-1.192;2022-11-15T07:08:33;8.23;;;1.55;;
46755;SDS011;32506;52.826;-1.192;2022-11-15T07:11:01;7.15;;;1.33;;
46755;SDS011;32506;52.826;-1.192;2022-11-15T07:13:29;6.90;;;1.58;;
46755;SDS011;32506;52.826;-1.192;2022-11-15T07:15:58;8.05;;;1.30;;
46755;SDS011;32506;52.826;-1.192;2022-11-15T07:18:26;9.48;;;1.88;;
46755;SDS011;32506;52.826;-1.192;2022-11-15T07:20:52;7.80;;;1.10;;
46755;SDS011;32506;52.826;-1.192;2022-11-15T07:23:18;7.22;;;1.65;;
46755;SDS011;32506;52.826;-1.192;2022-11-15T07:25:43;5.82;;;1.65;;
46755;SDS011;32506;52.826;-1.192;2022-11-15T07:28:08;6.60;;;1.10;;
46755;SDS011;32506;52.826;-1.192;2022-11-15T07:30:34;3.80;;;1.30;;
46755;SDS011;32506;52.826;-1.192;2022-11-15T07:33:00;8.38;;;1.42;;
46755;SDS011;32506;52.826;-1.192;2022-11-15T07:35:26;7.25;;;1.35;;
46755;SDS011;32506;52.826;-1.192;2022-11-15T07:37:56;6.47;;;1.10;;
46755;SDS011;32506;52.826;-1.192;2022-11-15T07:40:23;4.35;;;0.80;;
46755;SDS011;32506;52.826;-1.192;2022-11-15T07:42:49;5.10;;;1.42;;
46755;SDS011;32506;52.826;-1.192;2022-11-15T07:45:18;4.28;;;0.90;;
46755;SDS011;32506;52.826;-1.192;2022-11-15T07:47:47;8.88;;;1.00;;
46755;SDS011;32506;52.826;-1.192;2022-11-15T07:50:14;4.63;;;1.00;;
46755;SDS011;32506;52.826;-1.192;2022-11-15T07:52:40;6.45;;;1.23;;
46755;SDS011;32506;52.826;-1.192;2022-11-15T07:55:06;5.43;;;1.40;;
46755;SDS011;32506;52.826;-1.192;2022-11-15T07:57:32;8.88;;;1.38;;
46755;SDS011;32506;52.826;-1.192;2022-11-15T07:59:57;3.08;;;0.85;;
46755;SDS011;32506;52.826;-1.192;2022-11-15T08:02:23;5.22;;;1.10;;
46755;SDS011;32506;52.826;-1.192;2022-11-15T08:04:48;4.75;;;0.98;;
46755;SDS011;32506;52.826;-1.192;2022-11-15T08:07:14;5.15;;;0.93;;
46755;SDS011;32506;52.826;-1.192;2022-11-15T08:09:39;3.88;;;0.90;;
46755;SDS011;32506;52.826;-1.192;2022-11-15T08:12:05;7.07;;;2.03;;
46755;SDS011;32506;52.826;-1.192;2022-11-15T08:14:30;3.35;;;0.85;;
46755;SDS011;32506;52.826;-1.192;2022-11-15T08:16:56;9.25;;;2.38;;
46755;SDS011;32506;52.826;-1.192;2022-11-15T08:19:21;3.83;;;1.13;;
46755;SDS011;32506;52.826;-1.192;2022-11-15T08:21:47;5.40;;;1.40;;
46755;SDS011;32506;52.826;-1.192;2022-11-15T08:24:13;6.88;;;0.88;;
46755;SDS011;32506;52.826;-1.192;2022-11-15T08:26:39;6.50;;;1.30;;
46755;SDS011;32506;52.826;-1.192;2022-11-15T08:29:05;3.78;;;0.90;;
46755;SDS011;32506;52.826;-1.192;2022-11-15T08:31:31;5.30;;;1.30;;
46755;SDS011;32506;52.826;-1.192;2022-11-15T08:33:56;3.33;;;1.00;;
46755;SDS011;32506;52.826;-1.192;2022-11-15T08:36:22;5.22;;;0.82;;
46755;SDS011;32506;52.826;-1.192;2022-11-15T08:38:47;3.40;;;0.93;;
46755;SDS011;32506;52.826;-1.192;2022-11-15T08:41:35;6.65;;;0.85;;
46755;SDS011;32506;52.826;-1.192;2022-11-15T08:44:01;3.33;;;1.13;;
46755;SDS011;32506;52.826;-1.192;2022-11-15T08:46:27;4.40;;;1.15;;
46755;SDS011;32506;52.826;-1.192;2022-11-15T08:48:52;3.13;;;0.90;;
46755;SDS011;32506;52.826;-1.192;2022-11-15T08:51:18;4.50;;;0.80;;
46755;SDS011;32506;52.826;-1.192;2022-11-15T08:53:43;3.65;;;1.20;;
46755;SDS011;32506;52.826;-1.192;2022-11-15T08:56:10;4.80;;;1.00;;
46755;SDS011;32506;52.826;-1.192;2022-11-15T08:58:36;2.88;;;0.70;;
46755;SDS011;32506;52.826;-1.192;2022-11-15T09:01:03;4.18;;;0.88;;
46755;SDS011;32506;52.826;-1.192;2022-11-15T09:03:29;4.03;;;1.00;;
46755;SDS011;32506;52.826;-1.192;2022-11-15T09:05:55;4.22;;;0.70;;
46755;SDS011;32506;52.826;-1.192;2022-11-15T09:08:28;3.80;;;0.85;;
46755;SDS011;32506;52.826;-1.192;2022-11-15T09:11:04;4.28;;;0.90;;
46755;SDS011;32506;52.826;-1.192;2022-11-15T09:13:31;3.05;;;0.82;;
46755;SDS011;32506;52.826;-1.192;2022-11-15T09:15:57;2.35;;;0.70;;
46755;SDS011;32506;52.826;-1.192;2022-11-15T09:18:24;2.25;;;0.68;;
46755;SDS011;32506;52.826;-1.192;2022-11-15T09:20:49;3.83;;;0.70;;
46755;SDS011;32506;52.826;-1.192;2022-11-15T09:23:15;3.58;;;0.70;;
46755;SDS011;32506;52.826;-1.192;2022-11-15T09:25:41;2.38;;;0.90;;
46755;SDS011;32506;52.826;-1.192;2022-11-15T09:28:06;4.32;;;0.77;;
46755;SDS011;32506;52.826;-1.192;2022-11-15T09:30:32;2.08;;;0.63;;
46755;SDS011;32506;52.826;-1.192;2022-11-15T09:32:58;3.33;;;0.80;;
46755;SDS011;32506;52.826;-1.192;2022-11-15T09:35:23;2.30;;;0.55;;
46755;SDS011;32506;52.826;-1.192;2022-11-15T09:37:49;4.85;;;0.65;;
46755;SDS011;32506;52.826;-1.192;2022-11-15T09:40:14;1.05;;;0.60;;
46755;SDS011;32506;52.826;-1.192;2022-11-15T09:42:49;3.97;;;0.80;;
46755;SDS011;32506;52.826;-1.192;2022-11-15T09:45:26;2.25;;;0.60;;
46755;SDS011;32506;52.826;-1.192;2022-11-15T09:50:36;3.40;;;0.70;;
46755;SDS011;32506;52.826;-1.192;2022-11-15T09:53:41;1.98;;;0.52;;
46755;SDS011;32506;52.826;-1.192;2022-11-15T09:56:18;2.25;;;0.43;;
46755;SDS011;32506;52.826;-1.192;2022-11-15T10:01:53;2.90;;;0.57;;
46755;SDS011;32506;52.826;-1.192;2022-11-15T10:04:23;1.58;;;0.50;;
46755;SDS011;32506;52.826;-1.192;2022-11-15T10:07:05;1.70;;;0.50;;
46755;SDS011;32506;52.826;-1.192;2022-11-15T10:12:22;1.50;;;0.50;;
46755;SDS011;32506;52.826;-1.192;2022-11-15T10:14:49;3.13;;;0.55;;
46755;SDS011;32506;52.826;-1.192;2022-11-15T10:20:23;2.00;;;0.40;;
46755;SDS011;32506;52.826;-1.192;2022-11-15T10:22:52;1.77;;;0.50;;
46755;SDS011;32506;52.826;-1.192;2022-11-15T10:25:24;2.35;;;0.40;;
46755;SDS011;32506;52.826;-1.192;2022-11-15T10:30:40;2.00;;;0.60;;
46755;SDS011;32506;52.826;-1.192;2022-11-15T10:33:17;3.08;;;0.40;;
46755;SDS011;32506;52.826;-1.192;2022-11-15T10:35:44;1.52;;;0.32;;
46755;SDS011;32506;52.826;-1.192;2022-11-15T10:38:10;2.60;;;0.30;;
46755;SDS011;32506;52.826;-1.192;2022-11-15T10:40:37;1.45;;;0.35;;
46755;SDS011;32506;52.826;-1.192;2022-11-15T10:45:41;1.15;;;0.43;;
46755;SDS011;32506;52.826;-1.192;2022-11-15T10:50:48;0.40;;;0.30;;
46755;SDS011;32506;52.826;-1.192;2022-11-15T10:56:12;1.55;;;0.30;;
46755;SDS011;32506;52.826;-1.192;2022-11-15T10:58:44;1.15;;;0.30;;
46755;SDS011;32506;52.826;-1.192;2022-11-15T11:01:18;1.20;;;0.30;;
46755;SDS011;32506;52.826;-1.192;2022-11-15T11:04:03;0.70;;;0.40;;
46755;SDS011;32506;52.826;-1.192;2022-11-15T11:06:50;0.30;;;0.20;;
46755;SDS011;32506;52.826;-1.192;2022-11-15T11:11:55;1.48;;;0.30;;
46755;SDS011;32506;52.826;-1.192;2022-11-15T11:14:31;1.52;;;0.30;;
46755;SDS011;32506;52.826;-1.192;2022-11-15T11:26:09;0.03;;;0.00;;
46755;SDS011;32506;52.826;-1.192;2022-11-15T11:34:40;0.30;;;0.10;;
46755;SDS011;32506;52.826;-1.192;2022-11-15T11:45:52;0.50;;;0.20;;
46755;SDS011;32506;52.826;-1.192;2022-11-15T11:51:05;0.95;;;0.20;;
46755;SDS011;32506;52.826;-1.192;2022-11-15T11:53:48;0.68;;;0.20;;
46755;SDS011;32506;52.826;-1.192;2022-11-15T11:56:26;0.73;;;0.38;;
46755;SDS011;32506;52.826;-1.192;2022-11-15T11:58:55;1.55;;;0.10;;
46755;SDS011;32506;52.826;-1.192;2022-11-15T12:01:29;0.82;;;0.10;;
46755;SDS011;32506;52.826;-1.192;2022-11-15T12:04:10;0.60;;;0.20;;
46755;SDS011;32506;52.826;-1.192;2022-11-15T12:14:57;0.35;;;0.10;;
46755;SDS011;32506;52.826;-1.192;2022-11-15T12:17:33;0.80;;;0.20;;
46755;SDS011;32506;52.826;-1.192;2022-11-15T12:19:59;1.33;;;0.20;;
46755;SDS011;32506;52.826;-1.192;2022-11-15T12:33:46;0.28;;;0.20;;
46755;SDS011;32506;52.826;-1.192;2022-11-15T12:41:14;0.63;;;0.35;;
46755;SDS011;32506;52.826;-1.192;2022-11-15T12:43:45;2.20;;;0.10;;
46755;SDS011;32506;52.826;-1.192;2022-11-15T12:46:13;0.55;;;0.10;;
46755;SDS011;32506;52.826;-1.192;2022-11-15T12:48:54;0.70;;;0.30;;
46755;SDS011;32506;52.826;-1.192;2022-11-15T12:51:21;0.32;;;0.13;;
46755;SDS011;32506;52.826;-1.192;2022-11-15T13:02:22;0.40;;;0.20;;
46755;SDS011;32506;52.826;-1.192;2022-11-15T13:17:51;1.10;;;0.30;;
46755;SDS011;32506;52.826;-1.192;2022-11-15T13:20:31;0.50;;;0.20;;
46755;SDS011;32506;52.826;-1.192;2022-11-15T13:28:27;0.47;;;0.20;;
46755;SDS011;32506;52.826;-1.192;2022-11-15T13:31:21;0.55;;;0.20;;
46755;SDS011;32506;52.826;-1.192;2022-11-15T13:33:48;1.15;;;0.22;;
46755;SDS011;32506;52.826;-1.192;2022-11-15T13:36:20;0.95;;;0.35;;
46755;SDS011;32506;52.826;-1.192;2022-11-15T13:39:04;0.47;;;0.20;;
46755;SDS011;32506;52.826;-1.192;2022-11-15T13:41:52;1.17;;;0.20;;
46755;SDS011;32506;52.826;-1.192;2022-11-15T13:44:22;1.48;;;0.30;;
46755;SDS011;32506;52.826;-1.192;2022-11-15T13:47:05;1.38;;;0.40;;
46755;SDS011;32506;52.826;-1.192;2022-11-15T13:49:41;0.43;;;0.10;;
46755;SDS011;32506;52.826;-1.192;2022-11-15T13:52:07;0.98;;;0.30;;
46755;SDS011;32506;52.826;-1.192;2022-11-15T13:54:47;0.60;;;0.20;;
46755;SDS011;32506;52.826;-1.192;2022-11-15T13:57:22;0.47;;;0.20;;
46755;SDS011;32506;52.826;-1.192;2022-11-15T13:59:53;1.13;;;0.20;;
46755;SDS011;32506;52.826;-1.192;2022-11-15T14:02:26;0.15;;;0.15;;
46755;SDS011;32506;52.826;-1.192;2022-11-15T14:05:05;0.50;;;0.22;;
46755;SDS011;32506;52.826;-1.192;2022-11-15T14:10:48;0.40;;;0.20;;
46755;SDS011;32506;52.826;-1.192;2022-11-15T14:13:31;0.95;;;0.22;;
46755;SDS011;32506;52.826;-1.192;2022-11-15T14:16:13;2.97;;;0.20;;
46755;SDS011;32506;52.826;-1.192;2022-11-15T14:18:49;0.75;;;0.20;;
46755;SDS011;32506;52.826;-1.192;2022-11-15T14:21:16;1.23;;;0.30;;
46755;SDS011;32506;52.826;-1.192;2022-11-15T14:23:43;0.57;;;0.20;;
46755;SDS011;32506;52.826;-1.192;2022-11-15T14:26:32;1.50;;;0.28;;
46755;SDS011;32506;52.826;-1.192;2022-11-15T14:31:46;1.73;;;0.38;;
46755;SDS011;32506;52.826;-1.192;2022-11-15T14:34:12;0.98;;;0.32;;
46755;SDS011;32506;52.826;-1.192;2022-11-15T14:36:37;1.20;;;0.30;;
46755;SDS011;32506;52.826;-1.192;2022-11-15T14:39:03;1.23;;;0.20;;
46755;SDS011;32506;52.826;-1.192;2022-11-15T14:41:33;0.52;;;0.30;;
46755;SDS011;32506;52.826;-1.192;2022-11-15T14:44:02;0.75;;;0.20;;
46755;SDS011;32506;52.826;-1.192;2022-11-15T14:46:29;0.30;;;0.20;;
46755;SDS011;32506;52.826;-1.192;2022-11-15T14:48:54;0.30;;;0.20;;
46755;SDS011;32506;52.826;-1.192;2022-11-15T14:51:20;0.40;;;0.10;;
46755;SDS011;32506;52.826;-1.192;2022-11-15T14:53:46;0.90;;;0.22;;
46755;SDS011;32506;52.826;-1.192;2022-11-15T14:56:12;0.55;;;0.17;;
46755;SDS011;32506;52.826;-1.192;2022-11-15T14:58:37;0.45;;;0.20;;
46755;SDS011;32506;52.826;-1.192;2022-11-15T15:01:25;0.82;;;0.20;;
46755;SDS011;32506;52.826;-1.192;2022-11-15T15:03:51;0.65;;;0.20;;
46755;SDS011;32506;52.826;-1.192;2022-11-15T15:06:17;0.57;;;0.20;;
46755;SDS011;32506;52.826;-1.192;2022-11-15T15:08:43;0.20;;;0.17;;
46755;SDS011;32506;52.826;-1.192;2022-11-15T15:11:14;0.50;;;0.20;;
46755;SDS011;32506;52.826;-1.192;2022-11-15T15:13:43;0.73;;;0.30;;
46755;SDS011;32506;52.826;-1.192;2022-11-15T15:16:09;0.80;;;0.40;;
46755;SDS011;32506;52.826;-1.192;2022-11-15T15:18:34;1.70;;;0.30;;
46755;SDS011;32506;52.826;-1.192;2022-11-15T15:21:00;1.02;;;0.25;;
46755;SDS011;32506;52.826;-1.192;2022-11-15T15:23:31;1.55;;;0.17;;
46755;SDS011;32506;52.826;-1.192;2022-11-15T15:26:04;0.90;;;0.30;;
46755;SDS011;32506;52.826;-1.192;2022-11-15T15:28:38;0.47;;;0.28;;
46755;SDS011;32506;52.826;-1.192;2022-11-15T15:31:04;0.77;;;0.47;;
46755;SDS011;32506;52.826;-1.192;2022-11-15T15:33:30;1.23;;;0.30;;
46755;SDS011;32506;52.826;-1.192;2022-11-15T15:35:56;1.40;;;0.32;;
46755;SDS011;32506;52.826;-1.192;2022-11-15T15:38:22;0.75;;;0.30;;
46755;SDS011;32506;52.826;-1.192;2022-11-15T15:40:47;0.77;;;0.52;;
46755;SDS011;32506;52.826;-1.192;2022-11-15T15:43:16;0.77;;;0.40;;
46755;SDS011;32506;52.826;-1.192;2022-11-15T15:45:42;0.55;;;0.40;;
46755;SDS011;32506;52.826;-1.192;2022-11-15T15:48:14;0.40;;;0.20;;
46755;SDS011;32506;52.826;-1.192;2022-11-15T15:50:42;1.00;;;0.45;;
46755;SDS011;32506;52.826;-1.192;2022-11-15T15:53:08;0.85;;;0.30;;
46755;SDS011;32506;52.826;-1.192;2022-11-15T15:55:35;1.45;;;0.40;;
46755;SDS011;32506;52.826;-1.192;2022-11-15T15:58:02;1.42;;;0.40;;
46755;SDS011;32506;52.826;-1.192;2022-11-15T16:00:28;1.40;;;0.73;;
46755;SDS011;32506;52.826;-1.192;2022-11-15T16:02:54;1.35;;;0.63;;
46755;SDS011;32506;52.826;-1.192;2022-11-15T16:05:19;1.35;;;0.50;;
46755;SDS011;32506;52.826;-1.192;2022-11-15T16:07:46;1.58;;;0.30;;
46755;SDS011;32506;52.826;-1.192;2022-11-15T16:12:40;1.15;;;0.40;;
46755;SDS011;32506;52.826;-1.192;2022-11-15T16:15:07;0.68;;;0.30;;
46755;SDS011;32506;52.826;-1.192;2022-11-15T16:17:33;1.00;;;0.50;;
46755;SDS011;32506;52.826;-1.192;2022-11-15T16:20:03;1.15;;;0.30;;
46755;SDS011;32506;52.826;-1.192;2022-11-15T16:22:29;1.52;;;0.30;;
46755;SDS011;32506;52.826;-1.192;2022-11-15T16:24:55;2.38;;;0.38;;
46755;SDS011;32506;52.826;-1.192;2022-11-15T16:27:21;0.60;;;0.20;;
46755;SDS011;32506;52.826;-1.192;2022-11-15T16:29:50;1.05;;;0.43;;
46755;SDS011;32506;52.826;-1.192;2022-11-15T16:32:16;2.03;;;0.35;;
46755;SDS011;32506;52.826;-1.192;2022-11-15T16:34:41;1.17;;;0.50;;
46755;SDS011;32506;52.826;-1.192;2022-11-15T16:37:15;2.45;;;0.45;;
46755;SDS011;32506;52.826;-1.192;2022-11-15T16:39:47;1.20;;;0.50;;
46755;SDS011;32506;52.826;-1.192;2022-11-15T16:42:12;2.42;;;0.35;;
46755;SDS011;32506;52.826;-1.192;2022-11-15T16:44:38;1.63;;;0.40;;
46755;SDS011;32506;52.826;-1.192;2022-11-15T16:47:03;1.23;;;0.40;;
46755;SDS011;32506;52.826;-1.192;2022-11-15T16:49:29;1.45;;;0.60;;
46755;SDS011;32506;52.826;-1.192;2022-11-15T16:51:54;1.58;;;0.38;;
46755;SDS011;32506;52.826;-1.192;2022-11-15T16:54:20;1.92;;;0.80;;
46755;SDS011;32506;52.826;-1.192;2022-11-15T16:56:45;4.38;;;0.50;;
46755;SDS011;32506;52.826;-1.192;2022-11-15T16:59:15;1.42;;;0.60;;
46755;SDS011;32506;52.826;-1.192;2022-11-15T17:01:42;1.75;;;0.50;;
46755;SDS011;32506;52.826;-1.192;2022-11-15T17:04:15;1.45;;;0.50;;
46755;SDS011;32506;52.826;-1.192;2022-11-15T17:06:42;2.75;;;0.70;;
46755;SDS011;32506;52.826;-1.192;2022-11-15T17:09:10;2.45;;;0.68;;